createdAt,value
2022-08-17T00:02:26.058Z,97484.09
2022-08-17T00:07:29.888Z,97436.28
2022-08-17T00:12:41.740Z,97454.97
2022-08-17T00:17:49.050Z,97489.13
2022-08-17T00:23:02.455Z,97498.34
2022-08-17T00:28:05.969Z,97499.22
2022-08-17T00:33:16.334Z,97477.75
2022-08-17T00:38:19.988Z,97477.91
2022-08-17T00:43:33.970Z,97488.59
2022-08-17T00:48:37.596Z,97499.66
2022-08-17T00:53:44.379Z,97502.78
2022-08-17T00:58:48.253Z,97476.56
2022-08-17T01:04:00.053Z,97496.16
2022-08-17T01:09:04.331Z,97494.66
2022-08-17T01:14:09.719Z,97503.69
2022-08-17T01:19:19.002Z,97506.31
2022-08-17T01:24:22.291Z,97492.06
2022-08-17T01:29:26.628Z,97450.06
2022-08-17T01:34:42.604Z,97503.69
2022-08-17T01:40:26.419Z,97497.34
2022-08-17T01:45:34.475Z,97478.16
2022-08-17T01:50:38.838Z,97484.72
2022-08-17T01:55:49.612Z,97487.50
2022-08-17T02:01:00.913Z,97481.47
2022-08-17T02:06:27.260Z,97479.66
2022-08-17T02:11:29.999Z,97464.78
2022-08-17T02:16:37.575Z,97482.19
2022-08-17T02:21:42.032Z,97481.38
2022-08-17T02:26:44.808Z,97454.78
2022-08-17T02:31:48.998Z,97461.94
2022-08-17T02:36:53.814Z,97454.19
2022-08-17T02:42:03.469Z,97449.56
2022-08-17T02:47:06.941Z,97460.22
2022-08-17T02:52:09.894Z,97439.00
2022-08-17T02:57:12.719Z,97425.06
2022-08-17T03:02:15.504Z,97441.00
2022-08-17T03:07:18.571Z,97405.16
2022-08-17T03:12:21.216Z,97422.97
2022-08-17T03:17:23.917Z,97427.47
2022-08-17T03:22:36.855Z,97437.25
2022-08-17T03:27:41.976Z,97417.28
2022-08-17T03:32:48.191Z,97444.81
2022-08-17T03:38:00.434Z,97433.97
2022-08-17T03:43:10.179Z,97409.81
2022-08-17T03:48:31.727Z,97449.31
2022-08-17T03:53:53.172Z,97444.50
2022-08-17T03:58:56.104Z,97465.69
2022-08-17T04:03:58.753Z,97474.97
2022-08-17T04:09:01.492Z,97449.75
2022-08-17T04:14:05.630Z,97469.34
2022-08-17T04:19:08.576Z,97473.88
2022-08-17T04:24:11.306Z,97464.47
2022-08-17T04:29:14.655Z,97465.09
2022-08-17T04:34:19.802Z,97479.34
2022-08-17T04:39:25.823Z,97444.50
2022-08-17T04:44:37.409Z,97468.59
2022-08-17T04:49:40.714Z,97463.66
2022-08-17T04:54:43.411Z,97482.97
2022-08-17T04:59:46.078Z,97464.91
2022-08-17T05:04:48.695Z,97485.66
2022-08-17T05:09:51.415Z,97426.25
2022-08-17T05:14:54.128Z,97465.72
2022-08-17T05:19:56.833Z,97496.09
2022-08-17T05:24:59.453Z,97463.31
2022-08-17T05:30:05.725Z,97494.97
2022-08-17T05:35:10.261Z,97511.56
2022-08-17T05:40:14.217Z,97496.00
2022-08-17T05:45:32.128Z,97403.44
2022-08-17T05:50:51.977Z,97512.63
2022-08-17T05:56:29.431Z,97494.00
2022-08-17T06:01:45.026Z,97512.22
2022-08-17T06:06:55.724Z,97506.00
2022-08-17T06:12:14.367Z,97478.81
2022-08-17T06:17:25.336Z,97496.56
2022-08-17T06:22:34.059Z,97460.00
2022-08-17T06:27:44.046Z,97478.47
2022-08-17T06:32:49.977Z,97487.91
2022-08-17T06:37:58.503Z,97480.16
2022-08-17T06:43:22.363Z,97475.06
2022-08-17T06:48:36.607Z,97480.47
2022-08-17T06:53:46.509Z,97474.13
2022-08-17T06:58:50.431Z,97459.84
2022-08-17T07:03:55.410Z,97474.69
2022-08-17T07:09:26.823Z,97461.28
2022-08-17T07:14:39.185Z,97429.75
2022-08-17T07:19:46.209Z,97452.69
2022-08-17T07:25:01.766Z,97409.13
2022-08-17T07:30:11.304Z,97472.66
2022-08-17T07:35:40.856Z,97468.44
2022-08-17T07:41:13.199Z,97477.41
2022-08-17T07:46:46.370Z,97468.56
2022-08-17T07:51:49.281Z,97451.16
2022-08-17T07:56:58.286Z,97467.47
2022-08-17T08:02:17.017Z,97413.56
2022-08-17T08:07:21.486Z,97469.50
2022-08-17T08:12:30.579Z,97466.44
2022-08-17T08:17:51.011Z,97438.94
2022-08-17T08:23:35.708Z,97480.47
2022-08-17T08:28:52.636Z,97394.22
2022-08-17T08:35:00.659Z,97310.44
2022-08-17T08:39:52.017Z,97475.00
2022-08-17T08:45:25.162Z,97480.00
2022-08-17T08:55:43.348Z,97470.25
2022-08-17T09:00:49.373Z,97469.31
2022-08-17T09:06:04.637Z,97474.97
2022-08-17T09:12:01.238Z,97456.63
2022-08-17T09:21:58.634Z,97440.31
2022-08-17T09:31:56.057Z,97480.69
2022-08-17T09:41:49.611Z,97475.38
2022-08-17T09:51:45.894Z,97436.56
2022-08-17T09:57:31.381Z,97454.03
2022-08-17T10:12:53.223Z,97468.31
2022-08-17T10:18:13.595Z,97486.13
2022-08-17T10:33:53.052Z,97473.25
2022-08-17T10:56:47.732Z,97455.47
2022-08-17T11:08:13.237Z,97445.34
2022-08-17T11:18:40.154Z,97438.28
2022-08-17T11:28:36.674Z,97441.00
2022-08-17T11:33:42.619Z,97438.50
2022-08-17T11:39:02.099Z,97422.97
2022-08-17T11:44:11.429Z,97431.38
2022-08-17T11:49:49.350Z,97431.56
2022-08-17T11:54:52.519Z,97432.84
2022-08-17T12:00:00.631Z,97424.69
2022-08-17T12:05:13.234Z,97435.25
2022-08-17T12:10:21.279Z,97434.00
2022-08-17T12:15:38.182Z,97417.47
2022-08-17T12:20:45.287Z,97433.94
2022-08-17T12:26:08.683Z,97421.09
2022-08-17T12:31:35.549Z,97418.63
2022-08-17T12:36:41.088Z,97422.00
2022-08-17T12:41:48.462Z,97426.38
2022-08-17T12:46:56.325Z,97432.31
2022-08-17T13:05:39.842Z,97439.53
2022-08-17T13:17:11.240Z,97440.19
2022-08-17T13:22:44.256Z,97420.91
2022-08-17T13:27:51.465Z,97412.25
2022-08-17T13:40:12.226Z,97392.84
2022-08-17T13:52:02.826Z,97391.78
2022-08-17T13:57:08.330Z,97390.31
2022-08-17T14:02:12.391Z,97395.38
2022-08-17T14:07:16.828Z,97400.22
2022-08-17T14:12:23.047Z,97386.41
2022-08-17T14:17:27.559Z,97389.88
2022-08-17T14:22:33.146Z,97384.00
2022-08-17T14:27:47.479Z,97393.91
2022-08-17T18:57:33.710Z,97382.19
2022-08-17T19:02:51.441Z,97387.47
2022-08-17T19:07:55.396Z,97426.53
2022-08-17T19:13:12.890Z,97412.88
2022-08-17T19:18:29.782Z,97393.44
2022-08-17T19:23:53.811Z,97382.97
2022-08-17T19:29:07.704Z,97417.06
2022-08-17T19:34:16.747Z,97385.53
2022-08-17T19:39:57.519Z,97464.09
2022-08-17T19:45:37.991Z,97480.25
2022-08-17T19:50:55.882Z,97498.19
2022-08-17T19:56:32.525Z,97522.06
2022-08-17T20:02:01.057Z,97564.31
2022-08-17T20:07:10.125Z,97567.97
2022-08-17T20:12:24.254Z,97625.25
2022-08-17T20:17:38.857Z,97615.41
2022-08-17T20:23:06.555Z,97628.72
2022-08-17T20:28:35.998Z,97614.84
2022-08-17T20:33:39.326Z,97578.97
2022-08-17T20:38:46.855Z,97571.22
2022-08-17T20:43:56.152Z,97555.59
2022-08-17T20:49:25.930Z,97494.97
2022-08-17T20:54:52.006Z,97484.59
2022-08-17T20:59:56.123Z,97416.00
2022-08-17T21:05:02.537Z,97434.81
2022-08-17T21:10:18.832Z,97513.78
2022-08-17T21:15:44.642Z,97529.72
2022-08-17T21:21:06.216Z,97517.03
2022-08-17T21:26:12.688Z,97519.97
2022-08-17T21:31:39.186Z,97462.22
2022-08-17T21:36:46.829Z,97520.28
2022-08-17T21:41:53.938Z,97509.44
2022-08-17T21:47:13.833Z,97485.56
2022-08-17T21:52:21.064Z,97494.13
2022-08-17T21:57:29.519Z,97516.38
2022-08-17T22:02:38.104Z,97521.63
2022-08-17T22:07:46.084Z,97488.56
2022-08-17T22:13:16.579Z,97491.75
2022-08-17T22:18:26.238Z,97527.63
2022-08-17T22:23:52.403Z,97516.31
2022-08-17T22:28:59.534Z,97468.41
2022-08-17T22:34:05.478Z,97464.88
2022-08-17T22:39:11.445Z,97461.28
2022-08-17T22:44:26.791Z,97454.47
2022-08-17T22:49:53.133Z,97440.28
2022-08-17T22:55:33.484Z,97419.06
2022-08-17T23:00:43.276Z,97403.41
2022-08-17T23:06:08.964Z,97438.84
2022-08-17T23:11:11.989Z,97403.94
2022-08-17T23:16:15.821Z,97429.13
2022-08-17T23:21:26.542Z,97435.56
2022-08-17T23:26:30.999Z,97423.25
2022-08-17T23:31:38.084Z,97362.34
2022-08-17T23:36:42.944Z,97437.50
2022-08-17T23:41:47.701Z,97436.84
2022-08-17T23:46:54.786Z,97419.44
2022-08-17T23:52:00.391Z,97427.75
2022-08-17T23:57:05.689Z,97435.44
